Time;durP1;ratioP1;P1;durP2;ratioP2;P2;SDS_P1;SDS_P2;PMS_P1;PMS_P2;Temp;Humidity;BMP_temperature;BMP_pressure;BME280_temperature;BME280_humidity;BME280_pressure;Samples;Min_cycle;Max_cycle;Signal;HPM_P1;HPM_P2
2021/03/24 00:02:49;;;;;;;5.00;4.57;;;5.80;89.30;;;;;;6301058;28;20469;-61
2021/03/24 00:05:53;;;;;;;5.73;4.40;;;5.80;89.80;;;;;;6300092;28;20475;-61
2021/03/24 00:08:55;;;;;;;6.33;5.17;;;5.80;90.00;;;;;;6275585;28;20577;-62
2021/03/24 00:11:58;;;;;;;7.20;5.27;;;5.90;90.00;;;;;;6266373;28;20488;-62
2021/03/24 00:15:00;;;;;;;4.33;3.93;;;5.80;90.30;;;;;;6296843;28;20477;-63
2021/03/24 00:18:03;;;;;;;5.10;4.60;;;5.80;90.00;;;;;;6300687;28;20476;-62
2021/03/24 00:21:07;;;;;;;5.87;5.27;;;5.80;90.10;;;;;;6300211;28;20986;-61
2021/03/24 00:24:10;;;;;;;6.47;5.10;;;5.80;90.20;;;;;;6300453;28;20484;-60
2021/03/24 00:27:12;;;;;;;6.10;5.10;;;5.70;90.30;;;;;;6298394;28;20473;-60
2021/03/24 00:30:20;;;;;;;5.00;4.50;;;5.70;90.60;;;;;;6297988;28;20800;-60
2021/03/24 00:33:25;;;;;;;7.40;4.70;;;5.70;90.50;;;;;;6297921;28;20831;-61
2021/03/24 00:36:29;;;;;;;5.47;4.97;;;5.70;90.60;;;;;;6298039;28;20566;-61
2021/03/24 00:39:31;;;;;;;5.30;4.60;;;5.70;90.80;;;;;;6298005;28;20839;-61
2021/03/24 00:42:33;;;;;;;6.03;4.60;;;5.60;90.70;;;;;;6299820;28;20469;-61
2021/03/24 00:45:36;;;;;;;5.23;4.70;;;5.60;90.60;;;;;;6299620;28;20482;-61
2021/03/24 00:48:39;;;;;;;5.70;4.80;;;5.60;90.70;;;;;;6299767;28;20795;-60
2021/03/24 00:51:42;;;;;;;4.97;4.57;;;5.60;90.70;;;;;;6300224;28;20560;-60
2021/03/24 00:54:45;;;;;;;4.70;4.20;;;5.50;90.70;;;;;;6299714;28;20492;-60
2021/03/24 00:57:47;;;;;;;12.00;5.17;;;5.50;90.70;;;;;;6299681;28;20962;-60
2021/03/24 01:00:50;;;;;;;8.67;4.73;;;5.50;90.10;;;;;;6299706;28;20480;-60
2021/03/24 01:03:53;;;;;;;6.77;5.27;;;5.40;90.00;;;;;;6299810;28;20479;-61
2021/03/24 01:06:56;;;;;;;6.93;4.97;;;5.40;90.00;;;;;;6299458;28;20493;-60
2021/03/24 01:09:58;;;;;;;4.97;4.33;;;5.20;89.80;;;;;;6299364;28;20477;-61
2021/03/24 01:13:00;;;;;;;5.50;3.90;;;5.20;90.10;;;;;;6300030;28;20479;-61
2021/03/24 01:16:03;;;;;;;4.20;3.90;;;5.10;90.00;;;;;;6289899;28;20470;-60
2021/03/24 01:19:06;;;;;;;4.63;3.97;;;5.10;90.00;;;;;;6299905;28;20473;-61
2021/03/24 01:22:09;;;;;;;5.40;4.90;;;5.10;90.00;;;;;;6299493;28;20492;-61
2021/03/24 01:25:12;;;;;;;4.80;4.30;;;5.00;89.60;;;;;;6299159;28;20481;-61
2021/03/24 01:28:18;;;;;;;4.20;3.80;;;4.90;89.60;;;;;;6299907;28;20485;-61
2021/03/24 01:31:20;;;;;;;5.50;4.27;;;4.90;90.00;;;;;;6299217;28;20990;-58
2021/03/24 01:34:22;;;;;;;5.57;4.23;;;4.80;89.80;;;;;;6299794;28;20817;-59
2021/03/24 01:37:26;;;;;;;6.60;4.33;;;4.80;89.70;;;;;;6299327;28;20611;-60
2021/03/24 01:40:31;;;;;;;5.53;4.23;;;4.80;90.20;;;;;;6299112;28;20472;-59
2021/03/24 01:43:35;;;;;;;5.20;4.20;;;4.80;90.10;;;;;;6299060;28;20743;-59
2021/03/24 01:46:40;;;;;;;4.00;3.60;;;4.80;90.10;;;;;;6298992;28;20485;-60
2021/03/24 01:49:42;;;;;;;4.20;3.80;;;4.80;90.00;;;;;;6299031;28;20618;-59
2021/03/24 01:52:46;;;;;;;4.73;4.20;;;4.70;90.20;;;;;;6299075;28;20469;-59
2021/03/24 01:55:48;;;;;;;4.17;3.50;;;4.60;90.30;;;;;;6298820;28;20465;-59
2021/03/24 01:58:51;;;;;;;5.03;3.70;;;4.60;90.30;;;;;;6298860;28;20473;-59
2021/03/24 02:01:54;;;;;;;6.13;3.80;;;4.50;90.20;;;;;;6298784;28;20477;-59
2021/03/24 02:04:57;;;;;;;5.00;4.00;;;4.40;90.20;;;;;;6299052;28;20473;-59
2021/03/24 02:08:07;;;;;;;4.77;4.37;;;4.40;90.40;;;;;;6299016;28;20468;-59
2021/03/24 02:11:15;;;;;;;7.30;5.50;;;4.30;90.60;;;;;;6298698;28;20559;-59
2021/03/24 02:14:22;;;;;;;3.63;3.30;;;4.20;91.00;;;;;;6298946;28;20426;-59
2021/03/24 02:17:27;;;;;;;4.97;3.63;;;4.30;91.00;;;;;;6294999;28;20498;-59
2021/03/24 02:20:34;;;;;;;6.00;3.93;;;4.20;90.80;;;;;;6303408;28;20477;-59
2021/03/24 02:23:48;;;;;;;3.73;3.27;;;4.20;91.10;;;;;;6303429;28;20479;-59
2021/03/24 02:27:10;;;;;;;4.43;3.70;;;4.10;90.90;;;;;;6303167;28;20481;-60
2021/03/24 02:30:18;;;;;;;3.23;2.93;;;4.00;91.10;;;;;;6303367;28;20473;-60
2021/03/24 02:33:23;;;;;;;5.33;3.70;;;4.00;91.20;;;;;;6303614;28;20488;-60
2021/03/24 02:36:27;;;;;;;5.80;4.10;;;4.00;91.20;;;;;;6303413;28;20575;-60
2021/03/24 02:39:31;;;;;;;7.73;3.67;;;3.90;91.10;;;;;;6303073;28;20814;-60
2021/03/24 02:42:35;;;;;;;4.20;3.80;;;3.90;91.50;;;;;;6303381;28;20484;-60
2021/03/24 02:45:40;;;;;;;4.20;3.90;;;3.90;91.50;;;;;;6302964;28;20469;-60
2021/03/24 02:48:44;;;;;;;5.40;4.00;;;3.90;91.90;;;;;;6303296;28;20484;-60
2021/03/24 02:51:47;;;;;;;4.00;3.70;;;3.90;91.50;;;;;;6302807;28;20988;-59
2021/03/24 02:54:50;;;;;;;6.50;4.73;;;3.90;91.40;;;;;;6302656;28;20477;-59
2021/03/24 02:57:54;;;;;;;7.37;4.40;;;4.00;91.40;;;;;;6302686;28;20477;-60
2021/03/24 03:00:57;;;;;;;5.00;4.20;;;3.90;91.30;;;;;;6302569;28;20480;-60
2021/03/24 03:04:05;;;;;;;6.67;4.40;;;3.90;91.30;;;;;;6302969;28;20469;-60
2021/03/24 03:07:13;;;;;;;6.27;4.63;;;3.90;91.30;;;;;;6302813;28;20470;-60
2021/03/24 03:10:20;;;;;;;9.90;7.70;;;3.80;91.40;;;;;;6302068;28;20477;-59
2021/03/24 03:13:29;;;;;;;12.07;8.90;;;3.80;91.50;;;;;;6302132;28;20596;-60
2021/03/24 03:16:37;;;;;;;6.87;5.87;;;3.80;91.60;;;;;;6302326;28;20469;-60
2021/03/24 03:19:44;;;;;;;6.80;5.30;;;3.80;91.60;;;;;;6302221;28;20469;-60
2021/03/24 03:22:52;;;;;;;6.00;4.60;;;3.70;91.60;;;;;;6302255;28;20549;-60
2021/03/24 03:25:58;;;;;;;5.53;4.97;;;3.60;92.00;;;;;;6292335;28;20985;-60
2021/03/24 03:29:09;;;;;;;4.97;4.47;;;3.60;92.20;;;;;;6301426;28;20469;-62
2021/03/24 03:32:17;;;;;;;5.23;4.73;;;3.60;92.30;;;;;;6301880;28;20450;-60
2021/03/24 03:35:22;;;;;;;5.27;4.77;;;3.50;92.40;;;;;;6301733;28;20418;-60
2021/03/24 03:38:29;;;;;;;5.00;4.60;;;3.60;92.40;;;;;;6301956;28;20497;-60
2021/03/24 03:41:33;;;;;;;6.50;5.60;;;3.60;92.30;;;;;;6301404;28;20812;-60
2021/03/24 03:44:37;;;;;;;6.20;5.60;;;3.60;92.20;;;;;;6301856;28;20479;-60
2021/03/24 03:47:40;;;;;;;5.30;4.80;;;3.50;92.20;;;;;;6301687;28;20461;-60
2021/03/24 03:50:44;;;;;;;4.93;4.43;;;3.40;92.20;;;;;;6301638;28;20630;-60
2021/03/24 03:53:53;;;;;;;6.07;5.33;;;3.40;92.60;;;;;;6301358;28;20488;-60
2021/03/24 03:57:02;;;;;;;4.83;4.23;;;3.40;92.70;;;;;;6301567;28;20472;-59
2021/03/24 04:00:17;;;;;;;6.40;4.87;;;3.30;93.30;;;;;;6301824;28;20472;-59
2021/03/24 04:03:26;;;;;;;6.93;5.10;;;3.30;93.10;;;;;;6300952;28;20474;-59
2021/03/24 04:06:35;;;;;;;5.53;4.47;;;3.30;93.30;;;;;;6301195;28;20564;-59
2021/03/24 04:09:41;;;;;;;5.63;4.27;;;3.30;93.30;;;;;;6300965;28;20474;-59
2021/03/24 04:12:43;;;;;;;5.27;4.77;;;3.30;93.20;;;;;;6300874;28;20469;-59
2021/03/24 04:15:49;;;;;;;5.93;4.73;;;3.30;93.40;;;;;;6300281;28;20464;-59
2021/03/24 04:18:57;;;;;;;8.23;5.30;;;3.30;93.40;;;;;;6300514;28;20470;-59
2021/03/24 04:22:01;;;;;;;5.93;5.17;;;3.30;93.30;;;;;;6300720;28;20470;-61
2021/03/24 04:25:05;;;;;;;9.13;5.83;;;3.20;93.30;;;;;;6300319;28;20958;-61
2021/03/24 04:28:12;;;;;;;5.20;4.70;;;3.20;93.60;;;;;;6291301;28;20469;-60
2021/03/24 04:31:19;;;;;;;5.50;5.10;;;3.20;93.70;;;;;;6300629;28;20474;-61
2021/03/24 04:34:22;;;;;;;5.13;4.63;;;3.10;93.80;;;;;;6300541;28;20480;-61
2021/03/24 04:37:29;;;;;;;10.03;5.90;;;3.00;93.90;;;;;;6300410;28;20457;-60
2021/03/24 04:40:37;;;;;;;6.67;4.87;;;3.00;93.90;;;;;;6299889;28;20465;-61
2021/03/24 04:43:42;;;;;;;6.87;5.47;;;3.10;94.10;;;;;;6299785;28;20978;-62
2021/03/24 04:46:47;;;;;;;8.33;5.03;;;3.10;94.30;;;;;;6299984;28;20814;-62
2021/03/24 04:49:53;;;;;;;7.30;5.37;;;3.10;94.20;;;;;;6300258;28;20481;-62
2021/03/24 04:53:01;;;;;;;6.97;5.57;;;3.10;94.00;;;;;;6299842;28;20469;-61
2021/03/24 04:56:12;;;;;;;12.20;9.80;;;3.10;94.00;;;;;;6299236;28;20833;-62
2021/03/24 04:59:19;;;;;;;18.93;14.47;;;3.10;94.30;;;;;;6299568;28;20906;-61
2021/03/24 05:02:27;;;;;;;11.67;10.47;;;3.10;94.20;;;;;;6299787;28;20461;-61
2021/03/24 05:05:30;;;;;;;11.60;10.10;;;3.20;94.30;;;;;;6299610;28;20453;-61
2021/03/24 05:08:38;;;;;;;12.37;11.07;;;3.20;94.50;;;;;;6299836;28;20465;-61
2021/03/24 05:11:44;;;;;;;7.73;6.70;;;3.10;94.60;;;;;;6299269;28;20866;-61
2021/03/24 05:14:52;;;;;;;7.13;6.17;;;3.10;94.60;;;;;;6299861;28;20465;-61
2021/03/24 05:17:57;;;;;;;8.17;5.43;;;3.20;94.60;;;;;;6299255;28;20819;-61
2021/03/24 05:21:07;;;;;;;7.77;5.60;;;3.20;94.40;;;;;;6299555;28;20470;-61
2021/03/24 05:24:13;;;;;;;6.70;5.30;;;3.30;94.40;;;;;;6299588;28;20487;-61
2021/03/24 05:27:26;;;;;;;6.00;5.47;;;3.30;94.10;;;;;;6299114;28;20803;-60
2021/03/24 05:30:30;;;;;;;5.60;4.20;;;3.20;94.10;;;;;;6299410;28;20488;-62
2021/03/24 05:33:40;;;;;;;8.67;6.23;;;3.20;94.10;;;;;;6299310;28;20474;-62
2021/03/24 05:36:44;;;;;;;5.30;4.80;;;3.30;94.10;;;;;;6299193;28;20813;-61
2021/03/24 05:39:47;;;;;;;5.57;4.60;;;3.30;94.10;;;;;;6299197;28;20982;-60
2021/03/24 05:42:59;;;;;;;6.90;5.33;;;3.30;94.40;;;;;;6299635;28;20480;-59
2021/03/24 05:46:10;;;;;;;6.80;4.60;;;3.30;94.40;;;;;;6299502;28;20481;-61
2021/03/24 05:49:26;;;;;;;7.70;5.03;;;3.40;94.30;;;;;;6299310;28;20473;-61
2021/03/24 05:52:43;;;;;;;4.83;4.13;;;3.40;94.20;;;;;;6299972;28;20479;-61
2021/03/24 05:55:51;;;;;;;8.40;6.00;;;3.50;94.20;;;;;;6304226;28;20478;-60
2021/03/24 05:59:04;;;;;;;5.87;5.30;;;3.60;94.20;;;;;;6304291;28;20484;-60
2021/03/24 06:02:12;;;;;;;6.10;5.27;;;3.70;94.10;;;;;;6279182;28;20446;-60
2021/03/24 06:05:22;;;;;;;7.47;6.33;;;3.80;94.00;;;;;;6303840;28;20941;-61
2021/03/24 06:09:01;;;;;;;8.40;5.90;;;3.80;93.90;;;;;;6304364;28;20568;-61
2021/03/24 06:12:24;;;;;;;8.80;6.50;;;3.90;93.90;;;;;;6303554;28;20799;-61
2021/03/24 06:15:53;;;;;;;10.27;5.90;;;3.90;93.90;;;;;;6303537;28;20818;-60
2021/03/24 06:19:17;;;;;;;6.63;5.43;;;4.10;94.00;;;;;;6303681;28;20476;-61
2021/03/24 06:22:35;;;;;;;5.03;4.53;;;4.20;93.90;;;;;;6303684;28;20470;-61
2021/03/24 06:25:42;;;;;;;8.70;6.07;;;4.30;93.90;;;;;;6302919;28;20489;-61
2021/03/24 06:28:53;;;;;;;7.80;6.17;;;4.40;93.70;;;;;;6303119;28;20473;-61
2021/03/24 06:32:17;;;;;;;6.90;6.03;;;4.50;93.70;;;;;;6303027;28;20474;-61
2021/03/24 06:35:35;;;;;;;7.33;6.57;;;4.60;93.60;;;;;;6265255;28;20445;-61
2021/03/24 06:39:01;;;;;;;7.77;6.20;;;4.80;93.50;;;;;;6277989;28;20476;-62
2021/03/24 06:42:15;;;;;;;8.87;7.13;;;5.10;93.40;;;;;;6278009;28;20463;-60
2021/03/24 06:45:37;;;;;;;9.50;6.73;;;5.40;92.80;;;;;;6278551;28;20469;-60
2021/03/24 06:48:55;;;;;;;10.60;7.10;;;6.00;92.60;;;;;;6272930;28;20463;-61
2021/03/24 06:52:33;;;;;;;9.33;6.70;;;8.00;90.20;;;;;;6269577;28;20982;-61
2021/03/24 06:56:11;;;;;;;8.10;5.97;;;10.90;77.90;;;;;;6277920;28;20466;-61
2021/03/24 06:59:25;;;;;;;8.33;6.93;;;13.50;63.10;;;;;;6303084;28;20437;-61
2021/03/24 07:03:01;;;;;;;12.47;6.50;;;15.30;53.00;;;;;;6302421;28;21018;-62
2021/03/24 07:06:27;;;;;;;8.93;6.00;;;15.00;49.20;;;;;;6301943;28;20473;-62
2021/03/24 07:09:37;;;;;;;7.10;5.90;;;14.90;49.80;;;;;;6302912;28;20469;-62
2021/03/24 07:13:06;;;;;;;7.73;6.17;;;16.60;47.60;;;;;;6302257;28;20939;-63
2021/03/24 07:16:16;;;;;;;11.40;6.50;;;18.50;43.40;;;;;;6302341;28;20476;-62
2021/03/24 07:19:40;;;;;;;8.10;7.10;;;20.00;38.50;;;;;;6302540;28;20516;-61
2021/03/24 07:23:07;;;;;;;11.60;8.57;;;21.20;36.50;;;;;;6301707;28;20489;-62
2021/03/24 07:26:16;;;;;;;7.77;7.07;;;22.70;33.50;;;;;;6301317;28;20340;-62
2021/03/24 07:29:44;;;;;;;11.73;8.30;;;24.00;31.50;;;;;;6302000;28;20198;-62
2021/03/24 07:32:51;;;;;;;10.97;9.87;;;25.20;29.80;;;;;;6302127;28;20227;-61
2021/03/24 07:36:12;;;;;;;10.93;9.70;;;25.90;28.80;;;;;;6301497;28;20588;-61
2021/03/24 07:39:55;;;;;;;10.00;8.30;;;26.50;27.90;;;;;;6296931;28;20715;-61
2021/03/24 07:43:12;;;;;;;11.13;9.40;;;26.90;26.90;;;;;;6225298;28;20243;-61
2021/03/24 07:46:36;;;;;;;12.20;8.43;;;27.40;25.80;;;;;;6301483;28;20231;-61
2021/03/24 07:49:48;;;;;;;12.83;8.30;;;28.00;25.10;;;;;;6301189;28;20230;-61
2021/03/24 07:53:28;;;;;;;12.53;8.50;;;28.30;24.80;;;;;;6301897;28;20241;-62
2021/03/24 07:56:37;;;;;;;10.17;8.70;;;29.40;24.10;;;;;;6288859;28;20238;-62
2021/03/24 07:59:44;;;;;;;10.80;9.30;;;30.40;23.40;;;;;;6300778;28;20226;-62
2021/03/24 08:02:56;;;;;;;10.87;9.60;;;31.00;22.40;;;;;;6293039;28;20273;-62
2021/03/24 08:06:14;;;;;;;9.77;8.33;;;31.10;21.80;;;;;;6276292;28;20230;-63
2021/03/24 08:09:42;;;;;;;10.60;7.70;;;32.00;21.20;;;;;;6266154;28;20215;-62
2021/03/24 08:13:07;;;;;;;18.27;9.77;;;32.70;20.20;;;;;;6274629;28;20223;-62
2021/03/24 08:16:35;;;;;;;11.65;9.30;;;32.00;19.90;;;;;;6260063;28;20223;-61
2021/03/24 08:19:55;;;;;;;8.77;7.90;;;33.00;20.70;;;;;;6274888;28;20563;-63
2021/03/24 08:23:24;;;;;;;8.23;7.43;;;34.80;19.60;;;;;;6273169;28;20238;-65
2021/03/24 08:26:31;;;;;;;8.63;6.53;;;36.10;18.20;;;;;;6232139;28;20242;-64
2021/03/24 08:29:38;;;;;;;9.02;7.38;;;36.90;17.30;;;;;;6272600;28;20223;-63
2021/03/24 08:33:21;;;;;;;9.15;8.35;;;38.00;16.60;;;;;;6274473;28;20376;-64
2021/03/24 08:36:51;;;;;;;8.77;7.95;;;38.40;16.20;;;;;;6267613;28;20235;-64
2021/03/24 08:40:26;;;;;;;5.75;5.28;;;38.40;15.80;;;;;;6274014;28;20665;-64
2021/03/24 08:43:39;;;;;;;5.10;4.70;;;38.20;15.30;;;;;;6275147;28;20235;-64
2021/03/24 08:46:46;;;;;;;5.82;5.32;;;38.70;14.90;;;;;;6275223;28;20235;-63
2021/03/24 08:49:51;;;;;;;5.30;4.80;;;39.00;14.70;;;;;;6275068;28;20234;-62
2021/03/24 08:53:03;;;;;;;5.07;4.68;;;39.40;14.30;;;;;;6273903;28;20246;-63
2021/03/24 08:56:19;;;;;;;6.82;4.75;;;39.80;14.30;;;;;;6270139;28;20234;-63
2021/03/24 08:59:28;;;;;;;5.57;5.18;;;40.70;13.70;;;;;;6272457;28;20267;-65
2021/03/24 09:02:41;;;;;;;6.70;5.35;;;40.20;13.40;;;;;;6275423;28;20241;-63
2021/03/24 09:05:51;;;;;;;5.10;4.68;;;40.20;13.50;;;;;;6272913;28;20245;-64
2021/03/24 09:09:07;;;;;;;4.47;4.07;;;40.90;13.20;;;;;;6253878;28;20258;-65
2021/03/24 09:12:16;;;;;;;5.15;4.75;;;41.30;12.80;;;;;;6247456;28;20244;-64
2021/03/24 09:15:22;;;;;;;5.40;4.65;;;39.70;13.30;;;;;;6248640;28;20330;-62
2021/03/24 09:18:32;;;;;;;5.88;5.15;;;40.00;13.20;;;;;;6274683;28;20246;-64
2021/03/24 09:21:45;;;;;;;4.57;4.28;;;40.40;13.10;;;;;;6274531;28;20236;-65
2021/03/24 09:25:14;;;;;;;28.77;26.50;;;40.50;12.90;;;;;;6273854;28;20577;-64
2021/03/24 09:28:40;;;;;;;5.53;4.35;;;39.10;13.50;;;;;;6274048;28;20247;-65
2021/03/24 09:32:10;;;;;;;4.68;4.28;;;39.20;13.60;;;;;;6274388;28;20227;-64
2021/03/24 09:35:37;;;;;;;5.13;4.72;;;40.10;13.20;;;;;;6271997;28;20563;-65
2021/03/24 09:38:41;;;;;;;5.20;4.80;;;40.50;12.90;;;;;;6274440;28;20254;-62
2021/03/24 09:41:49;;;;;;;5.78;4.60;;;39.90;12.90;;;;;;6275374;28;20253;-63
2021/03/24 09:45:06;;;;;;;4.97;4.55;;;40.20;12.90;;;;;;6278027;28;20235;-64
2021/03/24 09:48:14;;;;;;;4.78;4.38;;;40.70;13.00;;;;;;6297126;28;20567;-64
2021/03/24 09:51:22;;;;;;;5.07;4.68;;;40.70;12.70;;;;;;6285374;28;20668;-64
2021/03/24 09:54:27;;;;;;;4.18;3.78;;;41.80;12.70;;;;;;6274404;28;20368;-64
2021/03/24 09:57:45;;;;;;;4.40;4.00;;;43.70;12.10;;;;;;6273854;28;20233;-64
2021/03/24 10:01:00;;;;;;;4.30;3.90;;;44.60;11.30;;;;;;6289237;28;20267;-62
2021/03/24 10:04:16;;;;;;;3.58;3.38;;;43.30;11.70;;;;;;6284818;28;20227;-63
2021/03/24 10:07:22;;;;;;;4.38;4.07;;;44.10;11.60;;;;;;6286862;28;20365;-63
2021/03/24 10:10:28;;;;;;;4.63;4.10;;;44.30;11.30;;;;;;6284904;28;20219;-64
2021/03/24 10:13:39;;;;;;;5.15;4.75;;;44.90;11.20;;;;;;6298534;28;20238;-63
2021/03/24 10:16:46;;;;;;;5.18;4.78;;;44.50;11.10;;;;;;6298620;28;20226;-63
2021/03/24 10:19:57;;;;;;;4.40;4.10;;;42.00;11.30;;;;;;6298584;28;20226;-63
2021/03/24 10:23:05;;;;;;;4.07;3.67;;;40.10;12.10;;;;;;6298482;28;20246;-63
2021/03/24 10:26:13;;;;;;;5.38;4.63;;;39.80;12.60;;;;;;6298020;28;20235;-63
2021/03/24 10:29:20;;;;;;;4.00;3.60;;;40.30;12.40;;;;;;6298847;28;20199;-64
2021/03/24 10:32:28;;;;;;;4.65;4.13;;;40.00;12.30;;;;;;6298497;28;20556;-63
2021/03/24 10:35:56;;;;;;;5.15;4.20;;;39.10;12.90;;;;;;6298764;28;20238;-63
2021/03/24 10:39:04;;;;;;;4.20;3.90;;;38.40;13.10;;;;;;6299934;28;20230;-63
2021/03/24 10:42:19;;;;;;;3.72;3.53;;;37.20;13.20;;;;;;6296123;28;20311;-63
2021/03/24 10:45:27;;;;;;;4.20;3.90;;;36.00;14.00;;;;;;6278106;28;20231;-63
2021/03/24 10:48:34;;;;;;;4.10;3.80;;;34.20;14.40;;;;;;6278198;28;20742;-63
2021/03/24 10:51:49;;;;;;;3.63;3.33;;;32.70;15.50;;;;;;6296269;28;20697;-63
2021/03/24 10:54:58;;;;;;;4.45;3.40;;;31.70;16.50;;;;;;6302370;28;20571;-63
2021/03/24 10:58:09;;;;;;;3.40;3.10;;;31.10;16.50;;;;;;6302368;28;20672;-63
2021/03/24 11:01:17;;;;;;;3.85;3.22;;;30.30;16.70;;;;;;6301961;28;20287;-63
2021/03/24 11:04:30;;;;;;;3.80;3.50;;;29.70;17.10;;;;;;6302338;28;20227;-63
2021/03/24 11:07:37;;;;;;;3.60;3.30;;;29.30;17.00;;;;;;6293532;28;20719;-62
2021/03/24 11:10:54;;;;;;;3.73;2.87;;;28.60;18.00;;;;;;6277560;28;20230;-63
2021/03/24 11:14:01;;;;;;;3.53;3.03;;;28.20;17.80;;;;;;6277362;28;20235;-62
2021/03/24 11:17:10;;;;;;;4.10;3.80;;;27.50;18.10;;;;;;6290282;28;20700;-63
2021/03/24 11:20:15;;;;;;;3.77;3.47;;;27.30;18.80;;;;;;6299246;28;20239;-64
2021/03/24 11:23:24;;;;;;;3.70;3.33;;;26.80;18.60;;;;;;6277188;28;20240;-63
2021/03/24 11:26:44;;;;;;;3.30;3.00;;;26.70;19.00;;;;;;6277078;28;20232;-63
2021/03/24 11:30:11;;;;;;;4.97;4.67;;;26.20;19.60;;;;;;6277317;28;20231;-63
2021/03/24 11:33:19;;;;;;;3.53;2.80;;;26.00;20.20;;;;;;6277123;28;20227;-63
2021/03/24 11:36:27;;;;;;;2.67;2.43;;;26.30;19.70;;;;;;6289946;28;20254;-64
2021/03/24 11:39:34;;;;;;;2.93;2.73;;;26.60;19.40;;;;;;6299646;28;20234;-62
2021/03/24 11:42:36;;;;;;;3.20;2.90;;;26.50;19.60;;;;;;6290989;28;20231;-62
2021/03/24 11:45:40;;;;;;;3.20;2.60;;;26.40;19.40;;;;;;6274478;28;20612;-63
2021/03/24 11:49:10;;;;;;;3.17;2.87;;;26.50;19.50;;;;;;6274270;28;20231;-62
2021/03/24 11:52:31;;;;;;;4.00;3.03;;;26.70;19.50;;;;;;6297440;28;20542;-61
2021/03/24 11:55:56;;;;;;;2.60;2.40;;;26.70;19.30;;;;;;6264506;28;20246;-62
2021/03/24 11:59:11;;;;;;;3.27;2.97;;;25.80;20.00;;;;;;6280082;28;20227;-63
2021/03/24 12:02:19;;;;;;;4.87;2.93;;;25.20;20.40;;;;;;6249333;28;20239;-61
2021/03/24 12:05:25;;;;;;;3.63;2.47;;;25.10;20.80;;;;;;6272811;28;20657;-64
2021/03/24 12:08:37;;;;;;;3.20;2.80;;;25.50;21.10;;;;;;6265830;28;20651;-63
2021/03/24 12:11:40;;;;;;;3.20;2.40;;;25.90;20.50;;;;;;6273863;28;20574;-64
2021/03/24 12:14:44;;;;;;;3.20;2.20;;;26.20;20.20;;;;;;6274194;28;20310;-63
2021/03/24 12:17:47;;;;;;;2.40;2.20;;;26.20;20.00;;;;;;6273641;28;20235;-64
2021/03/24 12:20:55;;;;;;;3.50;2.80;;;26.10;20.10;;;;;;6267023;28;20246;-63
2021/03/24 12:24:00;;;;;;;2.53;2.17;;;25.90;20.50;;;;;;6273806;28;20228;-63
2021/03/24 12:27:10;;;;;;;2.03;1.90;;;26.00;20.30;;;;;;6265627;28;20228;-63
2021/03/24 12:30:24;;;;;;;2.73;2.10;;;26.00;20.40;;;;;;6247734;28;20223;-63
2021/03/24 12:33:28;;;;;;;3.70;2.30;;;26.00;20.60;;;;;;6267603;28;20288;-65
2021/03/24 12:36:32;;;;;;;3.27;2.50;;;25.70;20.60;;;;;;6264612;28;20737;-64
2021/03/24 12:39:37;;;;;;;3.70;2.47;;;25.20;21.20;;;;;;6260402;28;20307;-62
2021/03/24 12:42:40;;;;;;;2.90;2.17;;;25.10;21.10;;;;;;6250151;28;20243;-63
2021/03/24 12:45:43;;;;;;;2.13;1.93;;;25.00;21.50;;;;;;6248106;28;20275;-61
2021/03/24 12:48:48;;;;;;;3.00;1.93;;;24.60;21.20;;;;;;6247480;28;20236;-66
2021/03/24 12:52:08;;;;;;;2.47;2.10;;;24.20;21.60;;;;;;6267881;28;20232;-64
2021/03/24 12:55:13;;;;;;;2.60;2.33;;;24.20;21.80;;;;;;6271703;28;20231;-64
2021/03/24 12:58:36;;;;;;;2.23;2.03;;;24.20;21.80;;;;;;6268067;28;20255;-63
2021/03/24 13:01:46;;;;;;;2.30;2.10;;;24.40;21.60;;;;;;6272171;28;20693;-63
2021/03/24 13:05:06;;;;;;;5.20;2.33;;;24.40;21.50;;;;;;6272450;28;20234;-63
2021/03/24 13:08:20;;;;;;;3.00;2.00;;;24.20;21.80;;;;;;6286316;28;20346;-62
2021/03/24 13:11:34;;;;;;;3.00;2.20;;;24.20;22.30;;;;;;6282976;28;20299;-62
2021/03/24 13:14:57;;;;;;;3.03;2.50;;;23.90;22.10;;;;;;6272669;28;20232;-64
2021/03/24 13:18:13;;;;;;;3.07;2.33;;;23.80;22.20;;;;;;6289339;28;20238;-63
2021/03/24 13:21:35;;;;;;;3.03;2.20;;;23.30;22.40;;;;;;6289866;28;20255;-62
2021/03/24 13:25:07;;;;;;;3.20;2.37;;;23.20;22.30;;;;;;6284331;28;20771;-62
2021/03/24 13:28:43;;;;;;;2.87;2.17;;;23.40;22.30;;;;;;6286298;28;20552;-63
2021/03/24 13:31:52;;;;;;;3.80;2.23;;;23.40;22.20;;;;;;6286767;28;20819;-65
2021/03/24 13:34:58;;;;;;;2.23;2.03;;;23.30;22.50;;;;;;6272422;28;20758;-64
2021/03/24 13:38:02;;;;;;;2.67;2.47;;;22.80;22.70;;;;;;6271987;28;20235;-63
2021/03/24 13:41:07;;;;;;;2.43;2.10;;;22.50;23.10;;;;;;6271790;28;20231;-63
2021/03/24 13:44:18;;;;;;;3.73;3.10;;;22.00;23.10;;;;;;6273636;28;20684;-64
2021/03/24 13:47:26;;;;;;;2.67;2.13;;;21.40;23.80;;;;;;6247320;28;20622;-63
2021/03/24 13:50:33;;;;;;;3.97;2.17;;;20.90;24.10;;;;;;6256765;28;20243;-62
2021/03/24 13:53:45;;;;;;;2.57;2.37;;;20.70;24.80;;;;;;6247500;28;20232;-63
2021/03/24 13:56:56;;;;;;;2.50;1.60;;;20.40;24.80;;;;;;6247535;28;20311;-63
2021/03/24 14:00:21;;;;;;;2.00;1.80;;;20.10;24.80;;;;;;6247290;28;20710;-64
2021/03/24 14:03:29;;;;;;;1.97;1.67;;;19.80;25.10;;;;;;6247181;28;20243;-63
2021/03/24 14:06:52;;;;;;;1.80;1.60;;;19.60;25.40;;;;;;6247737;28;20374;-64
2021/03/24 14:10:07;;;;;;;3.37;1.80;;;19.50;25.60;;;;;;6272063;28;20269;-63
2021/03/24 14:13:31;;;;;;;3.13;1.70;;;19.50;26.00;;;;;;6272021;28;20242;-63
2021/03/24 14:16:39;;;;;;;3.63;1.60;;;19.20;26.00;;;;;;6276440;28;20572;-62
2021/03/24 14:19:50;;;;;;;1.57;1.43;;;19.10;26.40;;;;;;6276849;28;20319;-64
2021/03/24 14:22:58;;;;;;;1.57;1.20;;;19.20;26.60;;;;;;6276175;28;20314;-63
2021/03/24 14:26:05;;;;;;;2.13;1.50;;;19.20;26.00;;;;;;6276314;28;20528;-63
2021/03/24 14:29:24;;;;;;;1.47;1.33;;;19.30;26.00;;;;;;6276164;28;20310;-63
2021/03/24 14:32:41;;;;;;;1.87;1.53;;;19.10;26.30;;;;;;6276520;28;20570;-63
2021/03/24 14:35:57;;;;;;;1.80;1.30;;;19.00;26.60;;;;;;6276189;28;20239;-62
2021/03/24 14:39:05;;;;;;;2.00;1.70;;;19.00;26.60;;;;;;6276407;28;20242;-62
2021/03/24 14:42:22;;;;;;;1.43;1.33;;;18.80;26.50;;;;;;6275202;28;20337;-63
2021/03/24 14:45:39;;;;;;;3.00;1.30;;;18.60;27.00;;;;;;6265789;28;20240;-64
2021/03/24 14:49:05;;;;;;;1.63;1.43;;;18.50;27.40;;;;;;6251113;28;20297;-62
2021/03/24 14:52:22;;;;;;;2.43;1.43;;;18.40;27.50;;;;;;6274006;28;20232;-63
2021/03/24 14:55:27;;;;;;;1.50;1.40;;;18.30;27.40;;;;;;6251488;28;20475;-64
2021/03/24 14:59:11;;;;;;;3.80;1.93;;;18.40;27.70;;;;;;6250711;28;20471;-62
2021/03/24 15:02:35;;;;;;;2.03;1.70;;;18.30;27.90;;;;;;6250759;28;20483;-63
2021/03/24 15:05:57;;;;;;;2.10;1.80;;;17.90;28.00;;;;;;6241476;28;20798;-62
2021/03/24 15:09:01;;;;;;;1.87;1.77;;;17.70;28.30;;;;;;6270028;28;20561;-63
2021/03/24 15:12:18;;;;;;;2.33;1.53;;;17.80;28.60;;;;;;6272077;28;20471;-63
2021/03/24 15:15:52;;;;;;;3.20;1.67;;;17.90;28.40;;;;;;6250646;28;20471;-64
2021/03/24 15:19:31;;;;;;;1.40;1.30;;;17.80;28.30;;;;;;6264737;28;20572;-64
2021/03/24 15:22:46;;;;;;;2.90;1.67;;;17.80;28.60;;;;;;6274775;28;20501;-65
2021/03/24 15:25:54;;;;;;;2.43;1.70;;;17.80;28.80;;;;;;6274133;28;20554;-62
2021/03/24 15:29:09;;;;;;;4.00;2.37;;;17.90;28.70;;;;;;6275167;28;20623;-63
2021/03/24 15:32:20;;;;;;;3.10;1.60;;;17.70;29.70;;;;;;6275149;28;20473;-62
2021/03/24 15:35:29;;;;;;;1.43;1.33;;;17.70;30.10;;;;;;6274762;28;20780;-62
2021/03/24 15:38:37;;;;;;;3.30;3.00;;;17.80;29.40;;;;;;6274702;28;20812;-63
2021/03/24 15:41:48;;;;;;;4.27;3.97;;;17.80;30.30;;;;;;6276832;28;20470;-63
2021/03/24 15:45:00;;;;;;;4.37;3.97;;;17.70;31.00;;;;;;6274578;28;20470;-64
2021/03/24 15:48:20;;;;;;;4.67;4.27;;;17.60;31.50;;;;;;6274476;28;20943;-63
2021/03/24 15:51:29;;;;;;;5.53;4.10;;;17.40;31.30;;;;;;6291187;28;20469;-65
2021/03/24 15:54:37;;;;;;;4.57;4.17;;;17.30;31.10;;;;;;6299102;28;20466;-63
2021/03/24 15:57:55;;;;;;;4.50;4.10;;;17.00;31.50;;;;;;6298964;28;20470;-63
2021/03/24 16:01:06;;;;;;;3.60;3.10;;;16.80;31.90;;;;;;6298636;28;20465;-63
2021/03/24 16:04:24;;;;;;;5.93;4.80;;;16.70;32.50;;;;;;6299066;28;20473;-62
2021/03/24 16:07:38;;;;;;;5.27;4.77;;;16.70;32.50;;;;;;6298649;28;20473;-62
2021/03/24 16:10:43;;;;;;;6.87;4.50;;;16.20;33.00;;;;;;6288938;28;20962;-62
2021/03/24 16:13:51;;;;;;;5.20;3.93;;;15.90;34.00;;;;;;6298959;28;20473;-62
2021/03/24 16:17:01;;;;;;;4.93;4.20;;;15.40;34.90;;;;;;6292519;28;21211;-62
2021/03/24 16:20:08;;;;;;;6.13;5.40;;;15.50;35.10;;;;;;6273342;28;20997;-62
2021/03/24 16:23:27;;;;;;;4.90;4.50;;;15.30;35.50;;;;;;6248056;28;20483;-62
2021/03/24 16:27:05;;;;;;;5.00;4.47;;;15.10;36.10;;;;;;6248425;28;20463;-62
2021/03/24 16:30:14;;;;;;;5.30;4.80;;;15.10;36.20;;;;;;6248682;28;20470;-65
2021/03/24 16:34:02;;;;;;;6.00;5.27;;;15.10;36.50;;;;;;6248593;28;20467;-63
2021/03/24 16:37:27;;;;;;;8.67;6.10;;;14.90;36.80;;;;;;6248424;28;20506;-64
2021/03/24 16:40:56;;;;;;;5.37;4.80;;;14.70;37.40;;;;;;6248563;28;20544;-63
2021/03/24 16:44:28;;;;;;;5.73;5.23;;;14.70;37.70;;;;;;6250257;28;20463;-63